Terminal Aerodrome Forecast
Issued by NWS

Home | Current Version | Previous Version | Text Only | Print | Product List | Glossary On
Versions: 1 2 3 4 5 6 7 8 9 10 11 12 13 14 15 16 17 18 19
175
FTUS43 KDVN 010531
TAFBRL
TAF
KBRL 010531Z 0106/0206 27012KT P6SM OVC025
     FM011000 28009KT P6SM OVC018
     FM011600 27010KT P6SM OVC025=

USA.gov is the U.S. government's official web portal to all federal, state and local government web resources and services.